createdAt,value
2019-05-16T00:01:20.752Z,10.92
2019-05-16T00:03:51.048Z,10.87
2019-05-16T00:06:22.302Z,10.97
2019-05-16T00:08:52.605Z,11.03
2019-05-16T00:11:23.226Z,11.08
2019-05-16T00:13:53.709Z,11.10
2019-05-16T00:16:24.283Z,11.11
2019-05-16T00:18:55.419Z,11.11
2019-05-16T00:21:25.691Z,11.08
2019-05-16T00:23:55.896Z,11.08
2019-05-16T00:26:28.247Z,11.22
2019-05-16T00:28:59.144Z,11.29
2019-05-16T00:31:30.049Z,11.27
2019-05-16T00:34:00.737Z,11.26
2019-05-16T00:36:31.062Z,11.19
2019-05-16T00:39:01.255Z,11.22
2019-05-16T00:41:31.429Z,11.21
2019-05-16T00:44:01.829Z,11.22
2019-05-16T00:46:32.126Z,11.22
2019-05-16T00:49:02.668Z,11.10
2019-05-16T00:51:33.329Z,11.04
2019-05-16T00:54:04.509Z,11.15
2019-05-16T00:56:35.035Z,11.18
2019-05-16T00:59:07.903Z,11.17
2019-05-16T01:01:39.093Z,11.13
2019-05-16T01:04:09.745Z,11.17
2019-05-16T01:06:39.999Z,11.23
2019-05-16T01:09:10.163Z,11.25
2019-05-16T01:11:41.263Z,11.30
2019-05-16T01:14:11.460Z,11.22
2019-05-16T01:16:41.638Z,11.21
2019-05-16T01:19:11.876Z,11.34
2019-05-16T01:21:42.987Z,11.32
2019-05-16T01:24:13.425Z,11.35
2019-05-16T01:26:45.247Z,11.31
2019-05-16T01:29:16.085Z,11.27
2019-05-16T01:31:48.394Z,11.33
2019-05-16T01:34:18.875Z,11.30
2019-05-16T01:36:49.209Z,11.37
2019-05-16T01:39:19.901Z,11.34
2019-05-16T01:41:50.887Z,11.35
2019-05-16T01:44:21.515Z,11.36
2019-05-16T01:46:51.895Z,11.44
2019-05-16T01:49:22.745Z,11.47
2019-05-16T01:51:53.228Z,11.48
2019-05-16T01:54:23.577Z,11.40
2019-05-16T01:56:54.843Z,11.36
2019-05-16T01:59:25.411Z,11.30
2019-05-16T02:01:58.683Z,11.28
2019-05-16T02:04:28.718Z,11.27
2019-05-16T02:06:59.669Z,11.36
2019-05-16T02:09:29.813Z,11.36
2019-05-16T02:12:00.135Z,11.45
2019-05-16T02:14:31.026Z,11.43
2019-05-16T02:17:03.466Z,11.39
2019-05-16T02:19:35.696Z,11.37
2019-05-16T02:22:08.723Z,11.34
2019-05-16T02:24:38.977Z,11.39
2019-05-16T02:27:09.657Z,11.28
2019-05-16T02:29:40.386Z,11.33
2019-05-16T02:32:11.757Z,11.37
2019-05-16T02:34:41.994Z,11.36
2019-05-16T02:37:24.161Z,11.33
2019-05-16T02:39:45.464Z,11.33
2019-05-16T02:42:15.659Z,11.28
2019-05-16T02:44:45.873Z,11.30
2019-05-16T02:47:16.250Z,11.23
2019-05-16T02:49:50.304Z,11.22
2019-05-16T02:52:22.280Z,11.19
2019-05-16T02:54:52.502Z,11.16
2019-05-16T02:57:22.812Z,11.17
2019-05-16T02:59:53.468Z,11.18
2019-05-16T03:02:23.679Z,11.17
2019-05-16T03:04:54.336Z,11.17
2019-05-16T03:07:37.880Z,11.15
2019-05-16T03:10:01.174Z,11.17
2019-05-16T03:12:31.411Z,11.18
2019-05-16T03:15:02.834Z,11.15
2019-05-16T03:17:36.011Z,11.13
2019-05-16T03:20:10.549Z,11.12
2019-05-16T03:22:41.212Z,11.14
2019-05-16T03:25:12.965Z,11.07
2019-05-16T03:27:44.588Z,11.02
2019-05-16T03:30:16.929Z,10.93
2019-05-16T03:32:47.363Z,10.92
2019-05-16T03:35:23.954Z,10.87
2019-05-16T03:37:57.087Z,10.88
2019-05-16T03:40:31.062Z,10.82
2019-05-16T03:43:01.323Z,10.86
2019-05-16T03:45:32.749Z,10.91
2019-05-16T03:48:03.573Z,10.92
2019-05-16T03:50:34.123Z,10.89
2019-05-16T03:53:04.766Z,10.86
2019-05-16T03:55:35.073Z,10.84
2019-05-16T03:58:06.404Z,10.85
2019-05-16T04:00:55.733Z,10.87
2019-05-16T04:03:29.187Z,10.89
2019-05-16T04:06:01.176Z,10.93
2019-05-16T04:08:32.338Z,10.98
2019-05-16T04:11:02.642Z,11.06
2019-05-16T04:13:33.347Z,11.11
2019-05-16T04:16:04.460Z,11.13
2019-05-16T04:18:35.314Z,11.14
2019-05-16T04:21:05.973Z,11.21
2019-05-16T04:23:36.434Z,11.19
2019-05-16T04:26:07.125Z,11.18
2019-05-16T04:28:40.968Z,11.19
2019-05-16T04:31:12.360Z,11.27
2019-05-16T04:33:42.598Z,11.35
2019-05-16T04:36:13.222Z,11.43
2019-05-16T04:38:47.037Z,11.38
2019-05-16T04:41:17.073Z,11.40
2019-05-16T04:43:50.291Z,11.42
2019-05-16T04:46:21.302Z,11.42
2019-05-16T04:48:51.962Z,11.44
2019-05-16T04:51:22.290Z,11.50
2019-05-16T04:53:52.797Z,11.42
2019-05-16T04:56:24.281Z,11.32
2019-05-16T04:58:55.447Z,11.31
2019-05-16T05:01:25.921Z,11.28
2019-05-16T05:04:08.849Z,11.30
2019-05-16T05:06:31.024Z,11.31
2019-05-16T05:09:03.478Z,11.24
2019-05-16T05:11:33.872Z,11.24
2019-05-16T05:14:04.558Z,11.30
2019-05-16T05:16:36.148Z,11.38
2019-05-16T05:19:06.466Z,11.54
2019-05-16T05:21:36.780Z,11.60
2019-05-16T05:24:10.680Z,11.72
2019-05-16T05:26:41.455Z,11.84
2019-05-16T05:29:11.820Z,12.04
2019-05-16T05:31:45.101Z,11.76
2019-05-16T05:34:15.055Z,11.72
2019-05-16T05:36:45.494Z,11.78
2019-05-16T05:39:15.886Z,11.77
2019-05-16T05:41:46.197Z,11.90
2019-05-16T05:44:16.478Z,11.75
2019-05-16T05:46:47.097Z,11.73
2019-05-16T05:49:17.306Z,11.73
2019-05-16T05:51:50.029Z,11.82
2019-05-16T05:54:21.418Z,11.90
2019-05-16T05:56:51.737Z,11.84
2019-05-16T05:59:22.446Z,11.84
2019-05-16T06:01:53.300Z,11.99
2019-05-16T06:04:24.768Z,12.12
2019-05-16T06:06:55.029Z,12.23
2019-05-16T06:09:29.343Z,12.35
2019-05-16T06:11:57.702Z,12.50
2019-05-16T06:14:30.606Z,12.75
2019-05-16T06:17:00.605Z,12.93
2019-05-16T06:19:31.769Z,12.84
2019-05-16T06:22:02.661Z,13.04
2019-05-16T06:24:33.492Z,13.04
2019-05-16T06:27:03.768Z,13.09
2019-05-16T06:29:34.065Z,13.01
2019-05-16T06:32:05.925Z,12.64
2019-05-16T06:34:36.576Z,12.65
2019-05-16T06:37:09.676Z,12.68
2019-05-16T06:39:45.085Z,12.68
2019-05-16T06:42:11.587Z,12.74
2019-05-16T06:44:42.874Z,12.71
2019-05-16T06:47:19.672Z,12.61
2019-05-16T06:49:45.251Z,12.66
2019-05-16T06:52:15.986Z,12.57
2019-05-16T06:54:46.338Z,12.54
2019-05-16T06:57:16.671Z,12.65
2019-05-16T06:59:46.881Z,12.44
2019-05-16T07:02:29.694Z,12.49
2019-05-16T07:04:50.650Z,12.57
2019-05-16T07:07:21.354Z,12.65
2019-05-16T07:10:00.545Z,12.67
2019-05-16T07:12:23.866Z,12.51
2019-05-16T07:14:54.764Z,12.49
2019-05-16T07:17:25.745Z,12.24
2019-05-16T07:19:56.171Z,12.13
2019-05-16T07:22:26.497Z,11.92
2019-05-16T07:24:57.164Z,11.98
2019-05-16T07:27:30.937Z,12.13
2019-05-16T07:30:01.560Z,12.21
2019-05-16T07:32:31.818Z,12.25
2019-05-16T07:35:02.746Z,12.13
2019-05-16T07:37:34.795Z,12.10
2019-05-16T07:40:16.027Z,12.06
2019-05-16T07:42:37.338Z,12.05
2019-05-16T07:45:09.994Z,12.02
2019-05-16T07:47:40.348Z,11.83
2019-05-16T07:50:10.741Z,11.79
2019-05-16T07:52:41.050Z,11.89
2019-05-16T07:55:11.270Z,12.01
2019-05-16T07:57:41.995Z,11.84
2019-05-16T08:00:12.851Z,11.82
2019-05-16T08:02:43.247Z,11.83
2019-05-16T08:05:14.367Z,11.88
2019-05-16T08:07:44.553Z,11.99
2019-05-16T08:10:14.954Z,12.25
2019-05-16T08:12:51.317Z,12.40
2019-05-16T08:15:21.591Z,12.27
2019-05-16T08:17:52.636Z,12.27
2019-05-16T08:20:23.942Z,12.48
2019-05-16T08:22:54.260Z,12.73
2019-05-16T08:25:24.906Z,12.63
2019-05-16T08:27:56.179Z,12.79
2019-05-16T08:30:31.656Z,12.89
2019-05-16T08:33:02.371Z,12.80
2019-05-16T08:35:33.478Z,12.92
2019-05-16T08:38:03.748Z,12.69
2019-05-16T08:40:59.668Z,12.22
2019-05-16T08:43:06.882Z,11.79
2019-05-16T08:45:41.728Z,11.90
2019-05-16T08:48:11.633Z,12.04
2019-05-16T08:50:50.367Z,12.12
2019-05-16T08:53:16.034Z,12.01
2019-05-16T08:55:50.524Z,12.02
2019-05-16T08:58:22.626Z,12.07
2019-05-16T09:00:56.053Z,12.18
2019-05-16T09:03:24.846Z,12.21
2019-05-16T09:05:55.091Z,12.35
2019-05-16T09:08:25.355Z,12.40
2019-05-16T09:11:02.034Z,12.49
2019-05-16T09:13:28.058Z,12.38
2019-05-16T09:15:59.175Z,12.09
2019-05-16T09:18:40.630Z,11.91
2019-05-16T09:21:02.633Z,11.85
2019-05-16T09:23:32.949Z,11.88
2019-05-16T09:26:07.178Z,11.96
2019-05-16T09:28:38.953Z,11.58
2019-05-16T09:31:08.688Z,11.29
2019-05-16T09:33:39.036Z,11.16
2019-05-16T09:36:09.433Z,11.22
2019-05-16T09:38:39.629Z,11.11
2019-05-16T09:41:10.206Z,11.08
2019-05-16T09:43:40.402Z,11.15
2019-05-16T09:46:10.624Z,11.20
2019-05-16T09:48:41.062Z,11.14
2019-05-16T09:51:11.429Z,11.07
2019-05-16T09:53:41.753Z,10.98
2019-05-16T09:56:12.200Z,10.95
2019-05-16T09:58:47.283Z,11.08
2019-05-16T10:01:18.449Z,11.27
2019-05-16T10:03:50.116Z,11.31
2019-05-16T10:06:20.440Z,11.47
2019-05-16T10:08:50.646Z,11.44
2019-05-16T10:11:21.441Z,11.55
2019-05-16T10:13:51.686Z,11.68
2019-05-16T10:16:22.071Z,11.67
2019-05-16T10:18:52.295Z,11.76
2019-05-16T10:21:22.698Z,11.72
2019-05-16T10:23:53.241Z,11.65
2019-05-16T10:26:27.469Z,11.73
2019-05-16T10:28:57.852Z,11.78
2019-05-16T10:31:41.607Z,11.75
2019-05-16T10:34:01.195Z,11.73
2019-05-16T10:36:31.834Z,11.75
2019-05-16T10:39:02.046Z,11.95
2019-05-16T10:41:33.166Z,11.91
2019-05-16T10:44:06.219Z,11.94
2019-05-16T10:46:37.734Z,11.88
2019-05-16T10:49:08.326Z,11.90
2019-05-16T10:51:38.675Z,11.80
2019-05-16T10:54:13.692Z,11.71
2019-05-16T10:56:42.056Z,11.78
2019-05-16T10:59:53.261Z,11.71
2019-05-16T11:01:47.121Z,11.64
2019-05-16T11:04:29.013Z,11.52
2019-05-16T11:06:50.784Z,11.51
2019-05-16T11:09:22.090Z,11.55
2019-05-16T11:11:52.537Z,11.53
2019-05-16T11:14:23.193Z,11.46
2019-05-16T11:16:53.749Z,11.38
2019-05-16T11:19:24.786Z,11.35
2019-05-16T11:22:00.469Z,11.46
2019-05-16T11:24:30.898Z,11.43
2019-05-16T11:27:01.115Z,11.48
2019-05-16T11:29:32.422Z,11.50
2019-05-16T11:32:03.032Z,11.56
2019-05-16T11:34:34.380Z,11.68
2019-05-16T11:37:06.853Z,11.80
2019-05-16T11:39:38.065Z,11.90
2019-05-16T11:42:08.368Z,12.02
2019-05-16T11:44:38.534Z,12.18
2019-05-16T11:47:09.361Z,12.37
2019-05-16T11:49:39.855Z,12.59
2019-05-16T11:52:10.179Z,12.80
2019-05-16T11:54:41.502Z,12.94
2019-05-16T11:57:12.465Z,13.20
2019-05-16T11:59:43.331Z,13.83
2019-05-16T12:02:13.738Z,13.83
2019-05-16T12:04:47.010Z,14.22
2019-05-16T12:07:19.150Z,14.22
2019-05-16T12:09:55.169Z,14.47
2019-05-16T12:12:21.126Z,15.11
2019-05-16T12:14:55.002Z,15.66
2019-05-16T12:17:27.819Z,15.73
2019-05-16T12:19:57.664Z,16.04
2019-05-16T12:22:28.255Z,16.56
2019-05-16T12:24:58.679Z,16.61
2019-05-16T12:27:32.893Z,16.92
2019-05-16T12:30:01.552Z,16.56
2019-05-16T12:32:32.521Z,16.44
2019-05-16T12:35:03.760Z,16.25
2019-05-16T12:37:36.966Z,16.45
2019-05-16T12:40:06.924Z,16.89
2019-05-16T12:42:37.555Z,16.50
2019-05-16T12:45:08.225Z,16.33
2019-05-16T12:47:39.603Z,16.56
2019-05-16T12:50:11.760Z,16.15
2019-05-16T12:52:41.982Z,16.35
2019-05-16T12:55:12.533Z,16.55
2019-05-16T12:57:43.089Z,16.45
2019-05-16T13:00:16.357Z,16.29
2019-05-16T13:02:47.394Z,16.24
2019-05-16T13:05:18.312Z,15.99
2019-05-16T13:07:48.624Z,15.86
2019-05-16T13:10:19.475Z,15.75
2019-05-16T13:12:49.685Z,15.76
2019-05-16T13:15:27.325Z,15.90
2019-05-16T13:17:57.611Z,15.87
2019-05-16T13:20:29.113Z,15.70
2019-05-16T13:22:59.440Z,15.82
2019-05-16T13:25:30.695Z,16.21
2019-05-16T13:28:01.999Z,16.20
2019-05-16T13:30:32.262Z,16.03
2019-05-16T13:33:02.674Z,16.03
2019-05-16T13:35:33.392Z,16.10
2019-05-16T13:38:03.734Z,15.98
2019-05-16T13:40:35.120Z,15.93
2019-05-16T13:43:09.513Z,16.18
2019-05-16T13:45:37.946Z,15.96
2019-05-16T13:48:09.306Z,15.80
2019-05-16T13:50:40.222Z,15.92
2019-05-16T13:53:10.566Z,15.68
2019-05-16T13:55:41.412Z,15.49
2019-05-16T13:58:12.822Z,15.39
2019-05-16T14:00:43.137Z,15.44
2019-05-16T14:03:17.887Z,15.28
2019-05-16T14:05:47.924Z,15.20
2019-05-16T14:08:18.689Z,15.15
2019-05-16T14:10:49.451Z,14.98
2019-05-16T14:13:21.091Z,14.69
2019-05-16T14:15:51.585Z,14.62
2019-05-16T14:18:22.018Z,14.64
2019-05-16T14:20:52.925Z,14.58
2019-05-16T14:23:23.523Z,14.56
2019-05-16T14:25:54.002Z,14.53
2019-05-16T14:28:24.520Z,14.46
2019-05-16T14:30:57.271Z,14.46
2019-05-16T14:33:27.748Z,14.40
2019-05-16T14:35:58.085Z,14.38
2019-05-16T14:38:29.429Z,14.41
2019-05-16T14:40:59.779Z,14.64
2019-05-16T14:43:30.061Z,14.82
2019-05-16T14:46:00.379Z,14.97
2019-05-16T14:48:30.565Z,15.14
2019-05-16T14:51:01.399Z,15.36
2019-05-16T14:53:37.635Z,15.38
2019-05-16T14:56:07.287Z,15.52
2019-05-16T14:58:39.003Z,15.45
2019-05-16T15:01:09.564Z,15.46
2019-05-16T15:03:41.217Z,15.45
2019-05-16T15:06:11.872Z,15.40
2019-05-16T15:08:42.512Z,15.39
2019-05-16T15:11:14.561Z,15.33
2019-05-16T15:13:44.922Z,15.42
2019-05-16T15:16:16.994Z,15.42
2019-05-16T15:18:49.060Z,15.45
2019-05-16T15:21:19.364Z,15.47
2019-05-16T15:23:50.241Z,15.48
2019-05-16T15:26:22.105Z,15.46
2019-05-16T15:28:52.410Z,15.48
2019-05-16T15:31:23.265Z,15.55
2019-05-16T15:33:53.544Z,15.57
2019-05-16T15:36:26.904Z,15.52
2019-05-16T15:38:59.425Z,15.56
2019-05-16T15:41:29.136Z,15.56
2019-05-16T15:43:59.399Z,15.56
2019-05-16T15:46:30.451Z,15.56
2019-05-16T15:49:02.529Z,15.50
2019-05-16T15:51:36.756Z,15.48
2019-05-16T15:54:06.741Z,15.48
2019-05-16T15:56:38.728Z,15.54
2019-05-16T15:59:09.915Z,15.53
2019-05-16T16:01:41.103Z,15.54
2019-05-16T16:04:13.745Z,15.52
2019-05-16T16:06:49.657Z,15.49
2019-05-16T16:09:19.996Z,15.43
2019-05-16T16:11:50.326Z,15.41
2019-05-16T16:14:20.811Z,15.30
2019-05-16T16:16:51.335Z,15.29
2019-05-16T16:19:26.466Z,15.30
2019-05-16T16:21:57.886Z,15.29
2019-05-16T16:24:28.698Z,15.19
2019-05-16T16:26:59.337Z,15.10
2019-05-16T16:29:33.062Z,15.09
2019-05-16T16:32:02.870Z,15.01
2019-05-16T16:34:36.569Z,14.95
2019-05-16T16:37:07.590Z,14.97
2019-05-16T16:39:38.872Z,14.91
2019-05-16T16:42:09.533Z,14.71
2019-05-16T16:44:40.476Z,14.71
2019-05-16T16:47:13.298Z,14.72
2019-05-16T16:49:43.729Z,14.61
2019-05-16T16:52:16.562Z,14.63
2019-05-16T16:54:47.793Z,14.63
2019-05-16T16:57:21.915Z,14.63
2019-05-16T16:59:52.378Z,14.57
2019-05-16T17:02:22.603Z,14.58
2019-05-16T17:05:01.462Z,14.44
2019-05-16T17:07:27.998Z,14.26
2019-05-16T17:09:58.429Z,14.26
2019-05-16T17:12:29.138Z,14.08
2019-05-16T17:15:01.294Z,14.01
2019-05-16T17:17:31.979Z,13.91
2019-05-16T17:20:07.671Z,13.91
2019-05-16T17:22:38.610Z,13.87
2019-05-16T17:25:09.807Z,13.87
2019-05-16T17:27:39.825Z,13.72
2019-05-16T17:30:16.886Z,13.72
2019-05-16T17:32:58.536Z,13.72
2019-05-16T17:35:32.049Z,13.61
2019-05-16T17:38:02.774Z,13.55
2019-05-16T17:40:33.199Z,13.52
2019-05-16T17:43:03.257Z,13.49
2019-05-16T17:45:33.570Z,13.53
2019-05-16T17:48:06.550Z,13.50
2019-05-16T17:50:37.789Z,13.50
2019-05-16T17:53:07.852Z,13.45
2019-05-16T17:55:38.330Z,13.37
2019-05-16T17:58:09.114Z,13.42
2019-05-16T18:00:40.316Z,13.42
2019-05-16T18:03:10.564Z,13.36
2019-05-16T18:05:41.154Z,13.42
2019-05-16T18:08:11.458Z,13.29
2019-05-16T18:10:41.908Z,13.29
2019-05-16T18:13:12.732Z,13.32
2019-05-16T18:15:43.052Z,13.27
2019-05-16T18:18:13.253Z,13.25
2019-05-16T18:20:54.789Z,13.22
2019-05-16T18:23:16.482Z,13.18
2019-05-16T18:25:47.065Z,13.17
2019-05-16T18:28:17.639Z,13.16
2019-05-16T18:30:48.586Z,13.17
2019-05-16T18:33:19.378Z,13.14
2019-05-16T18:35:50.678Z,13.15
2019-05-16T18:38:20.869Z,13.17
2019-05-16T18:40:52.565Z,13.11
2019-05-16T18:43:22.754Z,13.13
2019-05-16T18:45:56.499Z,13.06
2019-05-16T18:48:27.373Z,13.11
2019-05-16T18:50:58.560Z,13.04
2019-05-16T18:53:30.782Z,13.09
2019-05-16T18:56:02.256Z,13.18
2019-05-16T18:58:32.962Z,13.12
2019-05-16T19:01:03.151Z,13.05
2019-05-16T19:03:35.236Z,13.08
2019-05-16T19:06:07.776Z,13.09
2019-05-16T19:08:38.605Z,13.07
2019-05-16T19:11:09.246Z,13.03
2019-05-16T19:13:39.810Z,13.07
2019-05-16T19:16:13.671Z,13.08
2019-05-16T19:18:43.880Z,13.07
2019-05-16T19:21:16.708Z,13.04
2019-05-16T19:23:48.053Z,13.03
2019-05-16T19:26:18.446Z,13.06
2019-05-16T19:28:48.631Z,13.00
2019-05-16T19:31:19.275Z,13.02
2019-05-16T19:33:50.003Z,12.96
2019-05-16T19:36:21.732Z,13.01
2019-05-16T19:38:57.069Z,12.97
2019-05-16T19:41:34.139Z,12.99
2019-05-16T19:44:06.773Z,12.99
2019-05-16T19:46:39.868Z,12.98
2019-05-16T19:49:12.149Z,12.96
2019-05-16T19:51:49.154Z,12.97
2019-05-16T19:54:19.561Z,12.84
2019-05-16T19:56:50.398Z,12.84
2019-05-16T19:59:20.645Z,12.80
2019-05-16T20:01:53.427Z,12.80
2019-05-16T20:04:23.926Z,12.77
2019-05-16T20:06:56.773Z,12.75
2019-05-16T20:09:30.318Z,12.68
2019-05-16T20:12:00.955Z,12.73
2019-05-16T20:14:31.561Z,12.70
2019-05-16T20:17:02.062Z,12.65
2019-05-16T20:19:32.264Z,12.64
2019-05-16T20:22:02.713Z,12.60
2019-05-16T20:24:33.516Z,12.61
2019-05-16T20:27:05.185Z,12.56
2019-05-16T20:29:36.825Z,12.58
2019-05-16T20:32:08.208Z,12.55
2019-05-16T20:34:39.551Z,12.51
2019-05-16T20:37:10.341Z,12.48
2019-05-16T20:39:41.254Z,12.48
2019-05-16T20:42:11.570Z,12.53
2019-05-16T20:44:42.655Z,12.47
2019-05-16T20:47:16.601Z,12.43
2019-05-16T20:49:50.725Z,12.49
2019-05-16T20:52:21.299Z,12.56
2019-05-16T20:54:51.451Z,12.53
2019-05-16T20:57:21.944Z,12.42
2019-05-16T20:59:53.607Z,12.38
2019-05-16T21:02:27.430Z,12.37
2019-05-16T21:04:58.062Z,12.36
2019-05-16T21:07:29.120Z,12.41
2019-05-16T21:10:02.222Z,12.42
2019-05-16T21:12:37.238Z,12.43
2019-05-16T21:15:08.521Z,12.43
2019-05-16T21:17:38.622Z,12.43
2019-05-16T21:20:09.344Z,12.40
2019-05-16T21:22:39.408Z,12.39
2019-05-16T21:25:09.846Z,12.37
2019-05-16T21:27:42.583Z,12.26
2019-05-16T21:30:13.449Z,12.27
2019-05-16T21:32:43.594Z,12.19
2019-05-16T21:35:14.092Z,12.21
2019-05-16T21:37:47.777Z,12.24
2019-05-16T21:40:18.865Z,12.20
2019-05-16T21:42:49.799Z,12.19
2019-05-16T21:45:20.603Z,12.18
2019-05-16T21:47:50.674Z,12.11
2019-05-16T21:50:21.479Z,12.05
2019-05-16T21:52:51.694Z,12.00
2019-05-16T21:55:22.077Z,12.03
2019-05-16T21:57:52.153Z,11.99
2019-05-16T22:00:28.003Z,12.02
2019-05-16T22:02:58.521Z,12.03
2019-05-16T22:05:29.489Z,12.04
2019-05-16T22:07:59.541Z,12.04
2019-05-16T22:10:30.050Z,11.94
2019-05-16T22:13:00.388Z,11.84
2019-05-16T22:15:31.064Z,11.84
2019-05-16T22:18:01.461Z,11.76
2019-05-16T22:20:32.092Z,11.80
2019-05-16T22:23:02.172Z,11.74
2019-05-16T22:25:32.169Z,11.63
2019-05-16T22:28:03.332Z,11.69
2019-05-16T22:30:33.857Z,11.67
2019-05-16T22:33:04.016Z,11.64
2019-05-16T22:35:34.065Z,11.67
2019-05-16T22:38:06.623Z,11.67
2019-05-16T22:40:37.426Z,11.62
2019-05-16T22:43:10.218Z,11.67
2019-05-16T22:45:41.206Z,11.63
2019-05-16T22:48:11.715Z,11.46
2019-05-16T22:50:41.786Z,11.35
2019-05-16T22:53:14.341Z,11.15
2019-05-16T22:55:44.425Z,11.04
2019-05-16T22:58:16.412Z,10.86
2019-05-16T23:00:47.029Z,10.82
2019-05-16T23:03:18.232Z,10.77
2019-05-16T23:05:48.251Z,10.70
2019-05-16T23:08:18.872Z,10.65
2019-05-16T23:10:49.348Z,10.56
2019-05-16T23:13:19.353Z,10.54
2019-05-16T23:15:49.919Z,10.53
2019-05-16T23:18:20.402Z,10.52
2019-05-16T23:20:50.733Z,10.52
2019-05-16T23:23:20.973Z,10.54
2019-05-16T23:25:51.890Z,10.47
2019-05-16T23:28:22.031Z,10.46
2019-05-16T23:30:52.149Z,10.36
2019-05-16T23:33:22.200Z,10.34
2019-05-16T23:35:52.729Z,10.27
2019-05-16T23:38:22.718Z,10.26
2019-05-16T23:40:53.093Z,10.29
2019-05-16T23:43:23.212Z,10.22
2019-05-16T23:45:53.203Z,10.31
2019-05-16T23:48:24.172Z,10.30
2019-05-16T23:50:56.843Z,10.35
2019-05-16T23:53:27.071Z,10.31
2019-05-16T23:55:57.596Z,10.30
2019-05-16T23:58:28.158Z,10.29
